sensor_id;sensor_type;location;lat;lon;timestamp;P1;durP1;ratioP1;P2;durP2;ratioP2
82787;SDS011;72529;51.786;4.662;2024-03-23T00:55:33;5.46;;;4.35;;
82787;SDS011;72529;51.786;4.662;2024-03-23T00:57:59;5.14;;;4.18;;
82787;SDS011;72529;51.786;4.662;2024-03-23T01:00:24;4.81;;;3.89;;
82787;SDS011;72529;51.786;4.662;2024-03-23T01:02:49;5.79;;;4.65;;
82787;SDS011;72529;51.786;4.662;2024-03-23T01:05:15;6.42;;;5.04;;
82787;SDS011;72529;51.786;4.662;2024-03-23T01:07:40;5.48;;;4.42;;
82787;SDS011;72529;51.786;4.662;2024-03-23T01:10:06;5.51;;;4.57;;
82787;SDS011;72529;51.786;4.662;2024-03-23T01:12:31;5.56;;;4.73;;
82787;SDS011;72529;51.786;4.662;2024-03-23T01:14:57;5.69;;;4.79;;
82787;SDS011;72529;51.786;4.662;2024-03-23T01:17:22;5.87;;;5.02;;
82787;SDS011;72529;51.786;4.662;2024-03-23T01:19:47;6.88;;;6.04;;
82787;SDS011;72529;51.786;4.662;2024-03-23T01:22:13;6.54;;;5.79;;
82787;SDS011;72529;51.786;4.662;2024-03-23T01:24:38;7.06;;;6.24;;
82787;SDS011;72529;51.786;4.662;2024-03-23T01:27:04;6.91;;;6.25;;
82787;SDS011;72529;51.786;4.662;2024-03-23T01:29:29;7.12;;;6.44;;
82787;SDS011;72529;51.786;4.662;2024-03-23T01:31:55;7.38;;;6.66;;
82787;SDS011;72529;51.786;4.662;2024-03-23T01:34:20;6.95;;;6.27;;
82787;SDS011;72529;51.786;4.662;2024-03-23T01:36:46;7.56;;;6.82;;
82787;SDS011;72529;51.786;4.662;2024-03-23T01:39:12;8.15;;;7.50;;
82787;SDS011;72529;51.786;4.662;2024-03-23T01:41:37;8.68;;;8.15;;
82787;SDS011;72529;51.786;4.662;2024-03-23T01:44:07;9.23;;;8.64;;
82787;SDS011;72529;51.786;4.662;2024-03-23T01:46:33;8.62;;;8.10;;
82787;SDS011;72529;51.786;4.662;2024-03-23T01:49:05;8.30;;;7.87;;
82787;SDS011;72529;51.786;4.662;2024-03-23T01:51:30;8.21;;;7.82;;
82787;SDS011;72529;51.786;4.662;2024-03-23T01:53:57;8.53;;;8.18;;
82787;SDS011;72529;51.786;4.662;2024-03-23T01:56:27;8.37;;;8.06;;
82787;SDS011;72529;51.786;4.662;2024-03-23T01:58:53;8.30;;;7.99;;
82787;SDS011;72529;51.786;4.662;2024-03-23T02:01:19;8.42;;;8.14;;
82787;SDS011;72529;51.786;4.662;2024-03-23T02:03:44;8.45;;;8.11;;
82787;SDS011;72529;51.786;4.662;2024-03-23T02:06:10;8.47;;;8.15;;
82787;SDS011;72529;51.786;4.662;2024-03-23T02:08:35;9.03;;;8.52;;
82787;SDS011;72529;51.786;4.662;2024-03-23T02:11:01;8.81;;;8.27;;
82787;SDS011;72529;51.786;4.662;2024-03-23T02:13:26;8.49;;;8.08;;
82787;SDS011;72529;51.786;4.662;2024-03-23T02:15:52;8.52;;;8.21;;
82787;SDS011;72529;51.786;4.662;2024-03-23T02:18:17;8.31;;;8.09;;
82787;SDS011;72529;51.786;4.662;2024-03-23T02:20:43;8.20;;;8.03;;
82787;SDS011;72529;51.786;4.662;2024-03-23T02:23:17;7.74;;;7.57;;
82787;SDS011;72529;51.786;4.662;2024-03-23T02:25:43;8.30;;;8.14;;
82787;SDS011;72529;51.786;4.662;2024-03-23T02:28:09;7.91;;;7.63;;
82787;SDS011;72529;51.786;4.662;2024-03-23T02:30:35;7.86;;;7.60;;
82787;SDS011;72529;51.786;4.662;2024-03-23T02:33:01;7.94;;;7.61;;
82787;SDS011;72529;51.786;4.662;2024-03-23T02:35:27;7.90;;;7.71;;
82787;SDS011;72529;51.786;4.662;2024-03-23T02:37:52;7.32;;;7.02;;
82787;SDS011;72529;51.786;4.662;2024-03-23T02:40:19;7.60;;;7.14;;
82787;SDS011;72529;51.786;4.662;2024-03-23T02:42:45;8.11;;;7.58;;
82787;SDS011;72529;51.786;4.662;2024-03-23T02:45:11;7.89;;;7.41;;
82787;SDS011;72529;51.786;4.662;2024-03-23T02:47:36;7.88;;;7.51;;
82787;SDS011;72529;51.786;4.662;2024-03-23T02:50:02;8.33;;;7.91;;
82787;SDS011;72529;51.786;4.662;2024-03-23T02:52:27;7.55;;;7.20;;
82787;SDS011;72529;51.786;4.662;2024-03-23T02:54:52;7.39;;;7.19;;
82787;SDS011;72529;51.786;4.662;2024-03-23T02:57:18;7.71;;;7.47;;
82787;SDS011;72529;51.786;4.662;2024-03-23T02:59:43;7.71;;;7.40;;
82787;SDS011;72529;51.786;4.662;2024-03-23T03:02:09;7.71;;;7.58;;
82787;SDS011;72529;51.786;4.662;2024-03-23T03:04:34;7.89;;;7.67;;
82787;SDS011;72529;51.786;4.662;2024-03-23T03:07:00;7.38;;;7.14;;
82787;SDS011;72529;51.786;4.662;2024-03-23T03:09:25;7.10;;;6.87;;
82787;SDS011;72529;51.786;4.662;2024-03-23T03:11:51;7.60;;;7.25;;
82787;SDS011;72529;51.786;4.662;2024-03-23T03:14:16;7.25;;;6.86;;
82787;SDS011;72529;51.786;4.662;2024-03-23T03:16:41;6.86;;;6.52;;
82787;SDS011;72529;51.786;4.662;2024-03-23T03:19:07;6.71;;;6.45;;
82787;SDS011;72529;51.786;4.662;2024-03-23T03:21:32;6.96;;;6.71;;
82787;SDS011;72529;51.786;4.662;2024-03-23T03:23:58;6.23;;;5.95;;
82787;SDS011;72529;51.786;4.662;2024-03-23T03:26:23;6.38;;;5.94;;
82787;SDS011;72529;51.786;4.662;2024-03-23T03:28:49;5.34;;;4.98;;
82787;SDS011;72529;51.786;4.662;2024-03-23T03:31:15;5.44;;;5.03;;
82787;SDS011;72529;51.786;4.662;2024-03-23T03:33:41;5.63;;;5.16;;
82787;SDS011;72529;51.786;4.662;2024-03-23T03:36:07;5.70;;;5.14;;
82787;SDS011;72529;51.786;4.662;2024-03-23T03:38:33;5.21;;;4.69;;
82787;SDS011;72529;51.786;4.662;2024-03-23T03:41:00;5.56;;;4.83;;
82787;SDS011;72529;51.786;4.662;2024-03-23T03:43:26;5.80;;;4.97;;
82787;SDS011;72529;51.786;4.662;2024-03-23T03:45:52;5.59;;;4.60;;
82787;SDS011;72529;51.786;4.662;2024-03-23T03:48:22;5.66;;;4.50;;
82787;SDS011;72529;51.786;4.662;2024-03-23T03:50:48;5.61;;;4.44;;
82787;SDS011;72529;51.786;4.662;2024-03-23T03:53:14;5.44;;;4.39;;
82787;SDS011;72529;51.786;4.662;2024-03-23T03:55:39;5.44;;;4.39;;
82787;SDS011;72529;51.786;4.662;2024-03-23T03:58:05;5.23;;;4.20;;
82787;SDS011;72529;51.786;4.662;2024-03-23T04:00:30;5.56;;;4.42;;
82787;SDS011;72529;51.786;4.662;2024-03-23T04:02:56;5.81;;;4.48;;
82787;SDS011;72529;51.786;4.662;2024-03-23T04:05:22;5.46;;;4.24;;
82787;SDS011;72529;51.786;4.662;2024-03-23T04:07:48;5.42;;;4.20;;
82787;SDS011;72529;51.786;4.662;2024-03-23T04:10:13;5.15;;;3.91;;
82787;SDS011;72529;51.786;4.662;2024-03-23T04:12:40;5.19;;;3.93;;
82787;SDS011;72529;51.786;4.662;2024-03-23T04:15:06;5.18;;;4.00;;
82787;SDS011;72529;51.786;4.662;2024-03-23T04:17:31;5.57;;;4.30;;
82787;SDS011;72529;51.786;4.662;2024-03-23T04:19:59;5.60;;;4.33;;
82787;SDS011;72529;51.786;4.662;2024-03-23T04:22:26;5.97;;;4.62;;
82787;SDS011;72529;51.786;4.662;2024-03-23T04:24:53;6.48;;;4.99;;
82787;SDS011;72529;51.786;4.662;2024-03-23T04:27:19;5.32;;;4.14;;
82787;SDS011;72529;51.786;4.662;2024-03-23T04:29:48;5.82;;;4.41;;
82787;SDS011;72529;51.786;4.662;2024-03-23T04:32:16;5.66;;;4.22;;
82787;SDS011;72529;51.786;4.662;2024-03-23T04:34:43;5.41;;;4.02;;
82787;SDS011;72529;51.786;4.662;2024-03-23T04:37:09;5.33;;;3.98;;
82787;SDS011;72529;51.786;4.662;2024-03-23T04:39:35;5.20;;;3.94;;
82787;SDS011;72529;51.786;4.662;2024-03-23T04:42:01;4.89;;;3.73;;
82787;SDS011;72529;51.786;4.662;2024-03-23T04:44:27;5.70;;;4.28;;
82787;SDS011;72529;51.786;4.662;2024-03-23T04:46:53;5.23;;;3.95;;
82787;SDS011;72529;51.786;4.662;2024-03-23T04:49:19;4.95;;;3.79;;
82787;SDS011;72529;51.786;4.662;2024-03-23T04:51:44;5.26;;;3.97;;
82787;SDS011;72529;51.786;4.662;2024-03-23T04:54:11;5.32;;;3.92;;
82787;SDS011;72529;51.786;4.662;2024-03-23T04:56:37;5.01;;;3.67;;
82787;SDS011;72529;51.786;4.662;2024-03-23T04:59:02;5.43;;;3.99;;
82787;SDS011;72529;51.786;4.662;2024-03-23T05:01:30;5.31;;;3.99;;
82787;SDS011;72529;51.786;4.662;2024-03-23T05:03:56;5.12;;;3.85;;
82787;SDS011;72529;51.786;4.662;2024-03-23T05:06:22;4.93;;;3.68;;
82787;SDS011;72529;51.786;4.662;2024-03-23T05:08:48;5.29;;;3.93;;
82787;SDS011;72529;51.786;4.662;2024-03-23T05:11:14;5.84;;;4.23;;
82787;SDS011;72529;51.786;4.662;2024-03-23T05:13:40;6.78;;;4.92;;
82787;SDS011;72529;51.786;4.662;2024-03-23T05:16:06;5.78;;;4.30;;
82787;SDS011;72529;51.786;4.662;2024-03-23T05:18:32;5.42;;;4.07;;
82787;SDS011;72529;51.786;4.662;2024-03-23T05:20:58;6.42;;;4.77;;
82787;SDS011;72529;51.786;4.662;2024-03-23T05:23:24;6.54;;;4.74;;
82787;SDS011;72529;51.786;4.662;2024-03-23T05:25:51;6.84;;;4.96;;
82787;SDS011;72529;51.786;4.662;2024-03-23T05:28:19;6.29;;;4.67;;
82787;SDS011;72529;51.786;4.662;2024-03-23T05:30:52;6.29;;;4.69;;
82787;SDS011;72529;51.786;4.662;2024-03-23T05:33:18;5.84;;;4.47;;
82787;SDS011;72529;51.786;4.662;2024-03-23T05:35:44;6.47;;;4.90;;
82787;SDS011;72529;51.786;4.662;2024-03-23T05:38:10;7.07;;;5.22;;
82787;SDS011;72529;51.786;4.662;2024-03-23T05:40:35;8.05;;;5.74;;
82787;SDS011;72529;51.786;4.662;2024-03-23T05:43:02;7.43;;;5.46;;
82787;SDS011;72529;51.786;4.662;2024-03-23T05:45:28;7.52;;;5.54;;
82787;SDS011;72529;51.786;4.662;2024-03-23T05:47:54;7.82;;;5.71;;
82787;SDS011;72529;51.786;4.662;2024-03-23T05:50:22;7.68;;;5.58;;
82787;SDS011;72529;51.786;4.662;2024-03-23T05:52:47;7.31;;;5.45;;
82787;SDS011;72529;51.786;4.662;2024-03-23T05:55:14;6.89;;;5.20;;
82787;SDS011;72529;51.786;4.662;2024-03-23T05:57:39;7.18;;;5.32;;
82787;SDS011;72529;51.786;4.662;2024-03-23T06:00:05;7.71;;;5.73;;
82787;SDS011;72529;51.786;4.662;2024-03-23T06:02:35;7.22;;;5.44;;
82787;SDS011;72529;51.786;4.662;2024-03-23T06:05:01;7.91;;;6.04;;
82787;SDS011;72529;51.786;4.662;2024-03-23T06:07:27;7.92;;;6.02;;
82787;SDS011;72529;51.786;4.662;2024-03-23T06:09:52;6.23;;;5.03;;
82787;SDS011;72529;51.786;4.662;2024-03-23T06:12:18;6.32;;;5.04;;
82787;SDS011;72529;51.786;4.662;2024-03-23T06:14:43;6.34;;;5.11;;
82787;SDS011;72529;51.786;4.662;2024-03-23T06:17:09;6.76;;;5.32;;
82787;SDS011;72529;51.786;4.662;2024-03-23T06:19:34;7.37;;;5.74;;
82787;SDS011;72529;51.786;4.662;2024-03-23T06:22:00;7.14;;;5.63;;
82787;SDS011;72529;51.786;4.662;2024-03-23T06:24:25;6.78;;;5.44;;
82787;SDS011;72529;51.786;4.662;2024-03-23T06:26:51;6.18;;;5.10;;
82787;SDS011;72529;51.786;4.662;2024-03-23T06:29:16;7.43;;;5.98;;
82787;SDS011;72529;51.786;4.662;2024-03-23T06:31:41;7.04;;;5.67;;
82787;SDS011;72529;51.786;4.662;2024-03-23T06:34:07;6.29;;;5.19;;
82787;SDS011;72529;51.786;4.662;2024-03-23T06:36:32;6.34;;;5.20;;
82787;SDS011;72529;51.786;4.662;2024-03-23T06:38:58;6.72;;;5.36;;
82787;SDS011;72529;51.786;4.662;2024-03-23T06:41:24;6.74;;;5.35;;
82787;SDS011;72529;51.786;4.662;2024-03-23T06:43:50;6.31;;;4.99;;
82787;SDS011;72529;51.786;4.662;2024-03-23T06:46:16;6.29;;;4.88;;
82787;SDS011;72529;51.786;4.662;2024-03-23T06:48:41;6.69;;;5.03;;
82787;SDS011;72529;51.786;4.662;2024-03-23T06:51:06;7.11;;;5.22;;
82787;SDS011;72529;51.786;4.662;2024-03-23T06:53:32;7.19;;;5.39;;
82787;SDS011;72529;51.786;4.662;2024-03-23T06:55:57;6.04;;;4.64;;
82787;SDS011;72529;51.786;4.662;2024-03-23T06:58:24;6.96;;;5.32;;
82787;SDS011;72529;51.786;4.662;2024-03-23T07:00:50;7.00;;;5.14;;
82787;SDS011;72529;51.786;4.662;2024-03-23T07:03:16;6.68;;;4.89;;
82787;SDS011;72529;51.786;4.662;2024-03-23T07:05:42;6.79;;;4.94;;
82787;SDS011;72529;51.786;4.662;2024-03-23T07:08:07;6.87;;;5.00;;
82787;SDS011;72529;51.786;4.662;2024-03-23T07:10:33;6.93;;;4.95;;
82787;SDS011;72529;51.786;4.662;2024-03-23T07:12:59;7.02;;;5.02;;
82787;SDS011;72529;51.786;4.662;2024-03-23T07:15:24;6.73;;;4.98;;
82787;SDS011;72529;51.786;4.662;2024-03-23T07:17:50;7.18;;;5.19;;
82787;SDS011;72529;51.786;4.662;2024-03-23T07:20:15;6.82;;;4.98;;
82787;SDS011;72529;51.786;4.662;2024-03-23T07:22:41;6.13;;;4.51;;
82787;SDS011;72529;51.786;4.662;2024-03-23T07:25:06;6.92;;;4.95;;
82787;SDS011;72529;51.786;4.662;2024-03-23T07:27:32;7.91;;;5.58;;
82787;SDS011;72529;51.786;4.662;2024-03-23T07:29:59;7.26;;;5.27;;
82787;SDS011;72529;51.786;4.662;2024-03-23T07:32:26;7.01;;;5.06;;
82787;SDS011;72529;51.786;4.662;2024-03-23T07:34:52;7.66;;;5.38;;
82787;SDS011;72529;51.786;4.662;2024-03-23T07:37:17;8.91;;;6.15;;
82787;SDS011;72529;51.786;4.662;2024-03-23T07:39:43;7.12;;;4.90;;
82787;SDS011;72529;51.786;4.662;2024-03-23T07:42:08;7.19;;;5.00;;
82787;SDS011;72529;51.786;4.662;2024-03-23T07:44:33;6.96;;;4.88;;
82787;SDS011;72529;51.786;4.662;2024-03-23T07:47:00;7.15;;;4.92;;
82787;SDS011;72529;51.786;4.662;2024-03-23T07:49:26;7.26;;;4.96;;
82787;SDS011;72529;51.786;4.662;2024-03-23T07:51:51;7.64;;;5.21;;
82787;SDS011;72529;51.786;4.662;2024-03-23T07:54:17;7.04;;;4.84;;
82787;SDS011;72529;51.786;4.662;2024-03-23T07:56:42;6.73;;;4.63;;
82787;SDS011;72529;51.786;4.662;2024-03-23T07:59:08;7.23;;;5.01;;
82787;SDS011;72529;51.786;4.662;2024-03-23T08:01:33;6.64;;;4.68;;
82787;SDS011;72529;51.786;4.662;2024-03-23T08:03:59;7.20;;;5.03;;
82787;SDS011;72529;51.786;4.662;2024-03-23T08:06:25;6.17;;;4.42;;
82787;SDS011;72529;51.786;4.662;2024-03-23T08:08:56;6.63;;;4.79;;
82787;SDS011;72529;51.786;4.662;2024-03-23T08:11:26;6.69;;;4.79;;
82787;SDS011;72529;51.786;4.662;2024-03-23T08:13:53;6.37;;;4.50;;
82787;SDS011;72529;51.786;4.662;2024-03-23T08:16:18;6.79;;;4.75;;
82787;SDS011;72529;51.786;4.662;2024-03-23T08:18:44;6.79;;;4.77;;
82787;SDS011;72529;51.786;4.662;2024-03-23T08:21:10;7.48;;;5.20;;
82787;SDS011;72529;51.786;4.662;2024-03-23T08:23:36;5.97;;;4.22;;
82787;SDS011;72529;51.786;4.662;2024-03-23T08:26:09;6.52;;;4.58;;
82787;SDS011;72529;51.786;4.662;2024-03-23T08:28:37;6.60;;;4.67;;
82787;SDS011;72529;51.786;4.662;2024-03-23T08:31:04;7.18;;;5.01;;
82787;SDS011;72529;51.786;4.662;2024-03-23T08:33:31;7.20;;;5.05;;
82787;SDS011;72529;51.786;4.662;2024-03-23T08:35:58;6.42;;;4.62;;
82787;SDS011;72529;51.786;4.662;2024-03-23T08:38:25;6.54;;;4.77;;
82787;SDS011;72529;51.786;4.662;2024-03-23T08:43:27;5.75;;;4.38;;
82787;SDS011;72529;51.786;4.662;2024-03-23T08:46:02;6.17;;;4.64;;
82787;SDS011;72529;51.786;4.662;2024-03-23T08:48:35;6.39;;;4.81;;
82787;SDS011;72529;51.786;4.662;2024-03-23T08:51:03;5.98;;;4.44;;
82787;SDS011;72529;51.786;4.662;2024-03-23T08:53:30;6.32;;;4.76;;
82787;SDS011;72529;51.786;4.662;2024-03-23T08:55:56;5.49;;;4.14;;
82787;SDS011;72529;51.786;4.662;2024-03-23T08:58:23;5.70;;;4.28;;
82787;SDS011;72529;51.786;4.662;2024-03-23T09:00:50;6.34;;;4.66;;
82787;SDS011;72529;51.786;4.662;2024-03-23T09:03:22;6.37;;;4.62;;
82787;SDS011;72529;51.786;4.662;2024-03-23T09:05:51;7.46;;;5.22;;
82787;SDS011;72529;51.786;4.662;2024-03-23T09:08:17;6.96;;;4.92;;
82787;SDS011;72529;51.786;4.662;2024-03-23T09:10:43;7.48;;;5.24;;
82787;SDS011;72529;51.786;4.662;2024-03-23T09:13:09;7.17;;;5.04;;
82787;SDS011;72529;51.786;4.662;2024-03-23T09:15:36;7.10;;;5.11;;
82787;SDS011;72529;51.786;4.662;2024-03-23T09:18:03;6.80;;;4.95;;
82787;SDS011;72529;51.786;4.662;2024-03-23T09:20:29;5.96;;;4.37;;
82787;SDS011;72529;51.786;4.662;2024-03-23T09:22:57;6.70;;;4.87;;
82787;SDS011;72529;51.786;4.662;2024-03-23T09:25:23;7.32;;;5.39;;
82787;SDS011;72529;51.786;4.662;2024-03-23T09:27:49;7.42;;;5.49;;
82787;SDS011;72529;51.786;4.662;2024-03-23T09:30:15;7.00;;;5.09;;
82787;SDS011;72529;51.786;4.662;2024-03-23T09:32:42;7.85;;;5.82;;
82787;SDS011;72529;51.786;4.662;2024-03-23T09:35:08;6.98;;;5.30;;
82787;SDS011;72529;51.786;4.662;2024-03-23T09:37:33;5.52;;;4.25;;
82787;SDS011;72529;51.786;4.662;2024-03-23T09:39:59;5.78;;;4.33;;
82787;SDS011;72529;51.786;4.662;2024-03-23T09:42:24;5.58;;;4.19;;
82787;SDS011;72529;51.786;4.662;2024-03-23T09:44:51;6.04;;;4.48;;
82787;SDS011;72529;51.786;4.662;2024-03-23T09:47:17;7.19;;;5.06;;
82787;SDS011;72529;51.786;4.662;2024-03-23T09:49:43;6.48;;;4.56;;
82787;SDS011;72529;51.786;4.662;2024-03-23T09:52:08;7.05;;;5.06;;
82787;SDS011;72529;51.786;4.662;2024-03-23T09:54:34;6.55;;;4.67;;
82787;SDS011;72529;51.786;4.662;2024-03-23T09:57:00;6.15;;;4.29;;
82787;SDS011;72529;51.786;4.662;2024-03-23T09:59:25;6.63;;;4.57;;
82787;SDS011;72529;51.786;4.662;2024-03-23T10:01:52;6.91;;;4.75;;
82787;SDS011;72529;51.786;4.662;2024-03-23T10:07:15;6.72;;;4.69;;
82787;SDS011;72529;51.786;4.662;2024-03-23T10:09:43;6.34;;;4.35;;
82787;SDS011;72529;51.786;4.662;2024-03-23T10:12:09;6.43;;;4.38;;
82787;SDS011;72529;51.786;4.662;2024-03-23T10:14:35;5.91;;;4.01;;
82787;SDS011;72529;51.786;4.662;2024-03-23T10:17:11;6.51;;;4.45;;
82787;SDS011;72529;51.786;4.662;2024-03-23T10:19:42;6.09;;;4.16;;
82787;SDS011;72529;51.786;4.662;2024-03-23T10:22:09;6.83;;;4.62;;
82787;SDS011;72529;51.786;4.662;2024-03-23T10:24:38;6.91;;;4.64;;
82787;SDS011;72529;51.786;4.662;2024-03-23T10:27:03;6.62;;;4.43;;
82787;SDS011;72529;51.786;4.662;2024-03-23T10:29:28;6.62;;;4.51;;
82787;SDS011;72529;51.786;4.662;2024-03-23T10:31:55;6.70;;;4.53;;
82787;SDS011;72529;51.786;4.662;2024-03-23T10:34:33;6.70;;;4.59;;
82787;SDS011;72529;51.786;4.662;2024-03-23T10:36:58;6.38;;;4.38;;
82787;SDS011;72529;51.786;4.662;2024-03-23T10:39:28;6.66;;;4.59;;
82787;SDS011;72529;51.786;4.662;2024-03-23T10:41:57;6.32;;;4.45;;
82787;SDS011;72529;51.786;4.662;2024-03-23T10:44:26;6.01;;;4.32;;
82787;SDS011;72529;51.786;4.662;2024-03-23T10:46:56;6.68;;;4.79;;
82787;SDS011;72529;51.786;4.662;2024-03-23T10:49:31;6.15;;;4.41;;
82787;SDS011;72529;51.786;4.662;2024-03-23T10:51:58;6.06;;;4.25;;
82787;SDS011;72529;51.786;4.662;2024-03-23T10:54:29;6.13;;;4.29;;
82787;SDS011;72529;51.786;4.662;2024-03-23T10:57:06;6.22;;;4.34;;
82787;SDS011;72529;51.786;4.662;2024-03-23T10:59:36;7.16;;;5.00;;
82787;SDS011;72529;51.786;4.662;2024-03-23T11:02:03;7.09;;;4.93;;
82787;SDS011;72529;51.786;4.662;2024-03-23T11:04:35;6.64;;;4.56;;
82787;SDS011;72529;51.786;4.662;2024-03-23T11:07:28;7.55;;;5.12;;
82787;SDS011;72529;51.786;4.662;2024-03-23T11:09:57;7.35;;;4.91;;
82787;SDS011;72529;51.786;4.662;2024-03-23T11:14:56;7.00;;;4.71;;
82787;SDS011;72529;51.786;4.662;2024-03-23T11:17:25;6.85;;;4.65;;
82787;SDS011;72529;51.786;4.662;2024-03-23T11:22:39;5.73;;;3.91;;
82787;SDS011;72529;51.786;4.662;2024-03-23T11:25:13;6.48;;;4.37;;
82787;SDS011;72529;51.786;4.662;2024-03-23T11:27:38;6.56;;;4.41;;
82787;SDS011;72529;51.786;4.662;2024-03-23T11:30:37;6.38;;;4.32;;
82787;SDS011;72529;51.786;4.662;2024-03-23T11:32:56;6.06;;;4.24;;
82787;SDS011;72529;51.786;4.662;2024-03-23T11:35:32;5.65;;;4.00;;
82787;SDS011;72529;51.786;4.662;2024-03-23T11:40:34;6.49;;;4.48;;
82787;SDS011;72529;51.786;4.662;2024-03-23T11:43:07;5.62;;;3.81;;
82787;SDS011;72529;51.786;4.662;2024-03-23T11:48:13;5.24;;;3.57;;
82787;SDS011;72529;51.786;4.662;2024-03-23T11:50:43;5.92;;;3.96;;
82787;SDS011;72529;51.786;4.662;2024-03-23T11:55:48;6.01;;;3.91;;
82787;SDS011;72529;51.786;4.662;2024-03-23T11:58:14;5.88;;;3.86;;
82787;SDS011;72529;51.786;4.662;2024-03-23T12:00:41;6.37;;;4.24;;
82787;SDS011;72529;51.786;4.662;2024-03-23T12:03:07;6.56;;;4.33;;
82787;SDS011;72529;51.786;4.662;2024-03-23T12:05:35;7.16;;;4.67;;
82787;SDS011;72529;51.786;4.662;2024-03-23T12:10:47;5.97;;;3.98;;
82787;SDS011;72529;51.786;4.662;2024-03-23T12:13:15;6.90;;;4.56;;
82787;SDS011;72529;51.786;4.662;2024-03-23T12:15:44;6.46;;;4.23;;
82787;SDS011;72529;51.786;4.662;2024-03-23T12:18:11;6.75;;;4.37;;
82787;SDS011;72529;51.786;4.662;2024-03-23T12:20:37;6.21;;;4.01;;
82787;SDS011;72529;51.786;4.662;2024-03-23T12:23:06;6.04;;;3.92;;
82787;SDS011;72529;51.786;4.662;2024-03-23T12:25:32;6.77;;;4.42;;
82787;SDS011;72529;51.786;4.662;2024-03-23T12:28:00;7.29;;;4.76;;
82787;SDS011;72529;51.786;4.662;2024-03-23T12:30:26;7.81;;;5.09;;
82787;SDS011;72529;51.786;4.662;2024-03-23T12:32:52;5.90;;;3.86;;
82787;SDS011;72529;51.786;4.662;2024-03-23T12:35:17;6.63;;;4.32;;
82787;SDS011;72529;51.786;4.662;2024-03-23T12:37:43;5.75;;;3.74;;
82787;SDS011;72529;51.786;4.662;2024-03-23T12:40:09;7.14;;;4.60;;
82787;SDS011;72529;51.786;4.662;2024-03-23T12:42:35;7.05;;;4.48;;
82787;SDS011;72529;51.786;4.662;2024-03-23T12:45:00;7.03;;;4.54;;
82787;SDS011;72529;51.786;4.662;2024-03-23T12:47:26;6.89;;;4.52;;
82787;SDS011;72529;51.786;4.662;2024-03-23T12:49:52;6.79;;;4.50;;
82787;SDS011;72529;51.786;4.662;2024-03-23T12:52:17;7.14;;;4.73;;
82787;SDS011;72529;51.786;4.662;2024-03-23T12:54:45;5.91;;;3.89;;
82787;SDS011;72529;51.786;4.662;2024-03-23T12:57:10;5.83;;;3.84;;
82787;SDS011;72529;51.786;4.662;2024-03-23T12:59:35;5.34;;;3.51;;
82787;SDS011;72529;51.786;4.662;2024-03-23T13:02:01;5.41;;;3.50;;
82787;SDS011;72529;51.786;4.662;2024-03-23T13:04:26;6.48;;;4.21;;
82787;SDS011;72529;51.786;4.662;2024-03-23T13:06:52;6.69;;;4.31;;
82787;SDS011;72529;51.786;4.662;2024-03-23T13:09:17;6.56;;;4.27;;
82787;SDS011;72529;51.786;4.662;2024-03-23T13:11:43;6.25;;;4.11;;
82787;SDS011;72529;51.786;4.662;2024-03-23T13:14:09;5.85;;;3.90;;
82787;SDS011;72529;51.786;4.662;2024-03-23T13:16:34;5.66;;;3.79;;
82787;SDS011;72529;51.786;4.662;2024-03-23T13:18:59;5.41;;;3.67;;
82787;SDS011;72529;51.786;4.662;2024-03-23T13:21:26;5.74;;;3.88;;
82787;SDS011;72529;51.786;4.662;2024-03-23T13:23:51;5.54;;;3.78;;
82787;SDS011;72529;51.786;4.662;2024-03-23T13:26:17;5.74;;;3.84;;
82787;SDS011;72529;51.786;4.662;2024-03-23T13:28:42;7.60;;;5.01;;
82787;SDS011;72529;51.786;4.662;2024-03-23T13:31:08;5.99;;;3.94;;
82787;SDS011;72529;51.786;4.662;2024-03-23T13:33:33;6.21;;;4.06;;
82787;SDS011;72529;51.786;4.662;2024-03-23T13:35:59;5.26;;;3.52;;
82787;SDS011;72529;51.786;4.662;2024-03-23T13:38:25;6.31;;;4.20;;
82787;SDS011;72529;51.786;4.662;2024-03-23T13:43:16;5.61;;;3.69;;
82787;SDS011;72529;51.786;4.662;2024-03-23T13:45:42;6.01;;;4.01;;
82787;SDS011;72529;51.786;4.662;2024-03-23T13:48:07;5.43;;;3.66;;
82787;SDS011;72529;51.786;4.662;2024-03-23T13:50:33;5.69;;;3.82;;
82787;SDS011;72529;51.786;4.662;2024-03-23T13:52:58;4.85;;;3.24;;
82787;SDS011;72529;51.786;4.662;2024-03-23T13:55:24;4.84;;;3.25;;
82787;SDS011;72529;51.786;4.662;2024-03-23T13:57:49;5.10;;;3.40;;
82787;SDS011;72529;51.786;4.662;2024-03-23T14:00:16;4.68;;;3.08;;
82787;SDS011;72529;51.786;4.662;2024-03-23T14:02:43;4.52;;;2.99;;
82787;SDS011;72529;51.786;4.662;2024-03-23T14:05:09;4.54;;;3.08;;
82787;SDS011;72529;51.786;4.662;2024-03-23T14:07:34;3.56;;;2.46;;
82787;SDS011;72529;51.786;4.662;2024-03-23T14:10:03;4.57;;;3.13;;
82787;SDS011;72529;51.786;4.662;2024-03-23T14:12:31;4.42;;;3.03;;
82787;SDS011;72529;51.786;4.662;2024-03-23T14:14:57;4.35;;;2.97;;
82787;SDS011;72529;51.786;4.662;2024-03-23T14:17:22;2.92;;;1.98;;
82787;SDS011;72529;51.786;4.662;2024-03-23T14:19:47;2.32;;;1.58;;
82787;SDS011;72529;51.786;4.662;2024-03-23T14:22:13;2.09;;;1.41;;
82787;SDS011;72529;51.786;4.662;2024-03-23T14:24:38;2.24;;;1.51;;
82787;SDS011;72529;51.786;4.662;2024-03-23T14:27:04;2.87;;;1.95;;
82787;SDS011;72529;51.786;4.662;2024-03-23T14:29:32;2.35;;;1.61;;
82787;SDS011;72529;51.786;4.662;2024-03-23T14:31:59;2.25;;;1.55;;
82787;SDS011;72529;51.786;4.662;2024-03-23T14:34:25;1.45;;;1.01;;
82787;SDS011;72529;51.786;4.662;2024-03-23T14:36:53;1.64;;;1.13;;
82787;SDS011;72529;51.786;4.662;2024-03-23T14:39:22;1.57;;;1.09;;
82787;SDS011;72529;51.786;4.662;2024-03-23T14:41:49;1.86;;;1.31;;
82787;SDS011;72529;51.786;4.662;2024-03-23T14:44:15;2.41;;;1.71;;
82787;SDS011;72529;51.786;4.662;2024-03-23T14:46:41;2.26;;;1.59;;
82787;SDS011;72529;51.786;4.662;2024-03-23T14:49:06;2.23;;;1.58;;
82787;SDS011;72529;51.786;4.662;2024-03-23T14:51:32;2.21;;;1.58;;
82787;SDS011;72529;51.786;4.662;2024-03-23T14:53:58;2.41;;;1.73;;
82787;SDS011;72529;51.786;4.662;2024-03-23T14:56:24;2.94;;;2.11;;
82787;SDS011;72529;51.786;4.662;2024-03-23T14:58:52;5.53;;;4.14;;
82787;SDS011;72529;51.786;4.662;2024-03-23T15:01:18;5.87;;;4.64;;
82787;SDS011;72529;51.786;4.662;2024-03-23T15:03:44;3.14;;;2.53;;
82787;SDS011;72529;51.786;4.662;2024-03-23T15:06:09;2.46;;;1.93;;
82787;SDS011;72529;51.786;4.662;2024-03-23T15:08:35;1.69;;;1.30;;
82787;SDS011;72529;51.786;4.662;2024-03-23T15:11:03;1.46;;;1.13;;
82787;SDS011;72529;51.786;4.662;2024-03-23T15:13:33;1.44;;;1.10;;
82787;SDS011;72529;51.786;4.662;2024-03-23T15:16:00;1.05;;;0.80;;
82787;SDS011;72529;51.786;4.662;2024-03-23T15:18:28;1.19;;;0.92;;
82787;SDS011;72529;51.786;4.662;2024-03-23T15:20:55;1.22;;;0.94;;
82787;SDS011;72529;51.786;4.662;2024-03-23T15:23:23;1.37;;;1.06;;
82787;SDS011;72529;51.786;4.662;2024-03-23T15:28:21;1.41;;;1.07;;
82787;SDS011;72529;51.786;4.662;2024-03-23T15:30:48;1.34;;;1.03;;
82787;SDS011;72529;51.786;4.662;2024-03-23T15:33:13;1.37;;;1.04;;
82787;SDS011;72529;51.786;4.662;2024-03-23T15:35:39;1.59;;;1.21;;
82787;SDS011;72529;51.786;4.662;2024-03-23T15:38:04;1.20;;;0.92;;
82787;SDS011;72529;51.786;4.662;2024-03-23T15:40:30;1.44;;;1.09;;
82787;SDS011;72529;51.786;4.662;2024-03-23T15:42:55;1.63;;;1.21;;
82787;SDS011;72529;51.786;4.662;2024-03-23T15:45:20;1.68;;;1.23;;
82787;SDS011;72529;51.786;4.662;2024-03-23T15:47:46;2.14;;;1.57;;
82787;SDS011;72529;51.786;4.662;2024-03-23T15:50:12;2.07;;;1.52;;
82787;SDS011;72529;51.786;4.662;2024-03-23T15:52:37;2.26;;;1.68;;
82787;SDS011;72529;51.786;4.662;2024-03-23T15:55:05;3.27;;;2.40;;
82787;SDS011;72529;51.786;4.662;2024-03-23T15:57:32;2.49;;;1.83;;
82787;SDS011;72529;51.786;4.662;2024-03-23T15:59:58;3.03;;;2.21;;
82787;SDS011;72529;51.786;4.662;2024-03-23T16:02:24;2.49;;;1.84;;
82787;SDS011;72529;51.786;4.662;2024-03-23T16:04:49;2.64;;;1.94;;